Time;durP1;ratioP1;P1;durP2;ratioP2;P2;SDS_P1;SDS_P2;PMS_P1;PMS_P2;Temp;Humidity;BMP_temperature;BMP_pressure;BME280_temperature;BME280_humidity;BME280_pressure;Samples;Min_cycle;Max_cycle;Signal;HPM_P1;HPM_P2
2024/04/18 00:01:37;;;;;;;3.63;2.30;;;;;;;2.51;100.00;100423.16;5369037;26;20340;-72
2024/04/18 00:04:03;;;;;;;3.00;1.70;;;;;;;2.54;100.00;100416.63;5368318;26;20234;-72
2024/04/18 00:06:31;;;;;;;2.13;1.90;;;;;;;2.58;100.00;100417.59;5353721;26;20235;-73
2024/04/18 00:08:57;;;;;;;3.20;2.30;;;;;;;2.57;100.00;100427.25;5367501;26;20349;-72
2024/04/18 00:11:27;;;;;;;2.37;1.90;;;;;;;2.57;100.00;100429.09;5373393;26;20226;-72
2024/04/18 00:13:53;;;;;;;2.37;1.80;;;;;;;2.57;100.00;100429.88;5376298;26;20348;-72
2024/04/18 00:16:39;;;;;;;3.13;2.10;;;;;;;2.58;100.00;100425.41;5359782;26;20229;-72
2024/04/18 00:19:13;;;;;;;3.57;2.43;;;;;;;2.57;100.00;100432.47;5347061;26;20246;-72
2024/04/18 00:21:56;;;;;;;2.40;2.10;;;;;;;2.56;100.00;100430.94;5357524;26;20624;-73
2024/04/18 00:24:25;;;;;;;2.10;1.90;;;;;;;2.58;100.00;100428.81;5322290;26;20340;-72
2024/04/18 00:26:53;;;;;;;3.70;2.23;;;;;;;2.57;100.00;100435.09;5311387;26;20248;-72
2024/04/18 00:29:18;;;;;;;2.53;2.00;;;;;;;2.57;100.00;100434.28;5341734;26;20740;-72
2024/04/18 00:31:49;;;;;;;2.23;1.70;;;;;;;2.52;100.00;100435.13;5361779;26;20277;-72
2024/04/18 00:34:32;;;;;;;2.00;1.73;;;;;;;2.48;100.00;100428.13;5349509;26;20239;-72
2024/04/18 00:37:00;;;;;;;2.17;1.73;;;;;;;2.48;100.00;100436.72;5346065;26;20617;-71
2024/04/18 00:39:26;;;;;;;1.73;1.57;;;;;;;2.43;100.00;100441.97;5379907;26;20233;-72
2024/04/18 00:42:00;;;;;;;2.43;1.97;;;;;;;2.39;100.00;100432.41;5349562;26;20226;-72
2024/04/18 00:44:28;;;;;;;1.97;1.77;;;;;;;2.35;100.00;100432.19;5358906;26;20237;-72
2024/04/18 00:47:16;;;;;;;2.53;1.80;;;;;;;2.35;100.00;100441.81;5356053;26;20747;-72
2024/04/18 00:50:03;;;;;;;1.60;1.47;;;;;;;2.28;100.00;100436.91;5356635;26;20230;-72
2024/04/18 00:52:40;;;;;;;2.80;1.90;;;;;;;2.26;100.00;100439.03;5353292;26;20234;-72
2024/04/18 00:55:07;;;;;;;2.53;1.73;;;;;;;2.23;100.00;100444.78;5379689;26;20570;-72
2024/04/18 00:57:37;;;;;;;1.80;1.60;;;;;;;2.18;100.00;100442.19;5356309;26;20299;-72
2024/04/18 01:00:04;;;;;;;2.40;1.63;;;;;;;2.17;100.00;100434.66;5352560;26;20283;-72
2024/04/18 01:02:54;;;;;;;1.53;1.40;;;;;;;2.16;100.00;100446.13;5345897;26;20269;-72
2024/04/18 01:05:32;;;;;;;3.97;1.80;;;;;;;2.11;100.00;100443.56;5341764;26;20243;-72
2024/04/18 01:07:59;;;;;;;2.50;1.70;;;;;;;2.07;100.00;100439.97;5375586;26;20226;-72
2024/04/18 01:10:45;;;;;;;2.00;1.73;;;;;;;2.03;100.00;100449.38;5344068;26;20238;-72
2024/04/18 01:13:13;;;;;;;6.30;1.97;;;;;;;2.03;100.00;100452.75;5344256;26;20409;-72
2024/04/18 01:15:57;;;;;;;2.00;1.70;;;;;;;1.96;100.00;100451.50;5344561;26;20261;-72
2024/04/18 01:18:27;;;;;;;1.80;1.70;;;;;;;1.92;100.00;100450.50;5370802;26;20704;-72
2024/04/18 01:21:13;;;;;;;4.00;1.80;;;;;;;1.86;100.00;100452.34;5377821;26;20226;-72
2024/04/18 01:23:44;;;;;;;1.60;1.50;;;;;;;1.85;100.00;100450.81;5344180;26;20336;-71
2024/04/18 01:26:13;;;;;;;1.90;1.70;;;;;;;1.83;100.00;100454.72;5354182;26;20252;-72
2024/04/18 01:28:41;;;;;;;3.17;1.87;;;;;;;1.81;100.00;100456.78;5363669;26;20221;-72
2024/04/18 01:31:09;;;;;;;1.77;1.67;;;;;;;1.77;100.00;100459.16;5376098;26;20331;-71
2024/04/18 01:33:34;;;;;;;2.00;1.83;;;;;;;1.79;100.00;100467.50;5347110;26;20369;-72
2024/04/18 01:36:02;;;;;;;2.33;2.13;;;;;;;1.77;100.00;100466.97;5360902;26;20250;-72
2024/04/18 01:38:28;;;;;;;2.43;2.00;;;;;;;1.76;100.00;100468.03;5361359;26;20566;-73
2024/04/18 01:40:56;;;;;;;3.30;2.20;;;;;;;1.75;100.00;100470.91;5356775;26;20241;-72
2024/04/18 01:43:43;;;;;;;4.20;2.00;;;;;;;1.71;100.00;100465.47;5354880;26;20267;-72
2024/04/18 01:46:29;;;;;;;2.90;2.00;;;;;;;1.68;100.00;100467.81;5346920;26;20269;-72
2024/04/18 01:48:58;;;;;;;2.63;2.07;;;;;;;1.69;100.00;100477.97;5362064;26;20701;-72
2024/04/18 01:51:46;;;;;;;1.77;1.67;;;;;;;1.68;100.00;100483.44;5360395;26;20284;-72
2024/04/18 01:54:30;;;;;;;1.83;1.73;;;;;;;1.67;100.00;100480.03;5354654;26;20241;-72
2024/04/18 01:56:58;;;;;;;2.60;2.40;;;;;;;1.58;100.00;100481.69;5378698;26;20225;-72
2024/04/18 01:59:26;;;;;;;2.00;1.77;;;;;;;1.55;100.00;100492.63;5333785;26;20289;-72
2024/04/18 02:01:55;;;;;;;5.20;2.23;;;;;;;1.55;100.00;100487.41;5362015;26;20326;-72
2024/04/18 02:04:21;;;;;;;2.30;1.80;;;;;;;1.51;100.00;100496.03;5365043;26;20673;-72
2024/04/18 02:06:51;;;;;;;1.90;1.70;;;;;;;1.48;100.00;100492.13;5364141;26;20229;-72
2024/04/18 02:09:22;;;;;;;2.60;2.20;;;;;;;1.49;100.00;100495.50;5344752;26;20561;-72
2024/04/18 02:11:53;;;;;;;2.57;2.03;;;;;;;1.46;100.00;100489.00;5351184;26;20230;-72
2024/04/18 02:14:40;;;;;;;2.03;1.80;;;;;;;1.44;100.00;100503.31;5343188;26;20277;-72
2024/04/18 02:17:08;;;;;;;2.27;1.90;;;;;;;1.42;100.00;100495.03;5343510;26;20273;-72
2024/04/18 02:19:53;;;;;;;4.03;2.00;;;;;;;1.41;100.00;100501.28;5343691;26;20312;-72
2024/04/18 02:22:40;;;;;;;2.63;2.23;;;;;;;1.40;100.00;100505.69;5329690;26;20279;-72
2024/04/18 02:25:23;;;;;;;2.47;2.00;;;;;;;1.37;100.00;100502.84;5342933;26;20265;-73
2024/04/18 02:27:51;;;;;;;2.00;1.80;;;;;;;1.34;100.00;100496.34;5343373;26;20581;-72
2024/04/18 02:30:25;;;;;;;2.27;2.07;;;;;;;1.35;100.00;100497.91;5342683;26;20294;-72
2024/04/18 02:33:11;;;;;;;2.50;2.20;;;;;;;1.32;100.00;100493.25;5346205;26;20265;-72
2024/04/18 02:35:46;;;;;;;2.27;1.90;;;;;;;1.28;100.00;100494.81;5366687;26;20238;-72
2024/04/18 02:38:32;;;;;;;3.03;2.23;;;;;;;1.23;100.00;100494.84;5343622;26;20652;-72
2024/04/18 02:41:02;;;;;;;4.37;2.67;;;;;;;1.21;100.00;100501.34;5358658;26;20226;-72
2024/04/18 02:43:49;;;;;;;3.07;2.10;;;;;;;1.24;100.00;100499.00;5360911;26;20235;-72
2024/04/18 02:46:17;;;;;;;2.87;2.20;;;;;;;1.21;100.00;100496.91;5346291;26;20285;-73
2024/04/18 02:49:05;;;;;;;3.80;2.60;;;;;;;1.19;100.00;100499.00;5346109;26;20777;-72
2024/04/18 02:51:31;;;;;;;3.40;2.20;;;;;;;1.13;100.00;100504.47;5360449;26;20305;-72
2024/04/18 02:54:14;;;;;;;2.37;2.00;;;;;;;1.15;100.00;100502.41;5367136;26;20234;-71
2024/04/18 02:56:40;;;;;;;2.83;2.13;;;;;;;1.18;100.00;100512.28;5381018;26;20568;-72
2024/04/18 02:59:11;;;;;;;2.33;2.13;;;;;;;1.16;100.00;100509.16;5352269;26;20835;-72
2024/04/18 03:01:51;;;;;;;2.63;2.27;;;;;;;1.11;100.00;100503.97;5339569;26;20219;-72
2024/04/18 03:04:20;;;;;;;3.93;2.20;;;;;;;1.07;100.00;100508.16;5381489;26;20305;-72
2024/04/18 03:06:45;;;;;;;3.13;1.83;;;;;;;1.10;100.00;100508.38;5359361;26;20231;-72
2024/04/18 03:09:14;;;;;;;2.60;2.13;;;;;;;1.08;100.00;100513.09;5346233;26;20226;-72
2024/04/18 03:11:54;;;;;;;2.67;2.07;;;;;;;1.06;100.00;100520.38;5344088;26;20234;-72
2024/04/18 03:14:38;;;;;;;2.30;2.10;;;;;;;1.04;100.00;100519.09;5346799;26;20291;-72
2024/04/18 03:17:14;;;;;;;2.30;2.10;;;;;;;1.02;100.00;100521.16;5328818;26;20224;-72
2024/04/18 03:19:58;;;;;;;2.93;2.17;;;;;;;1.05;100.00;100520.63;5349072;26;20265;-71
2024/04/18 03:22:26;;;;;;;3.43;2.23;;;;;;;1.05;100.00;100523.25;5359712;26;20234;-72
2024/04/18 03:24:58;;;;;;;2.80;2.47;;;;;;;1.07;100.00;100524.53;5375384;26;20229;-72
2024/04/18 03:27:29;;;;;;;2.30;2.10;;;;;;;1.03;100.00;100522.72;5364866;26;20238;-72
2024/04/18 03:29:54;;;;;;;3.97;2.37;;;;;;;1.07;100.00;100521.16;5370185;26;20324;-72
2024/04/18 03:32:38;;;;;;;3.30;2.70;;;;;;;1.07;100.00;100524.53;5365983;26;20226;-73
2024/04/18 03:35:04;;;;;;;2.93;2.53;;;;;;;1.04;100.00;100524.28;5364009;26;20305;-72
2024/04/18 03:37:32;;;;;;;3.50;2.60;;;;;;;1.02;100.00;100534.94;5381111;26;20229;-72
2024/04/18 03:40:20;;;;;;;3.90;2.40;;;;;;;0.99;100.00;100534.69;5311366;26;20240;-72
2024/04/18 03:43:02;;;;;;;3.27;2.47;;;;;;;1.00;100.00;100529.22;5338044;26;20242;-72
2024/04/18 03:45:28;;;;;;;3.33;2.60;;;;;;;0.96;100.00;100538.59;5345714;26;20227;-72
2024/04/18 03:48:19;;;;;;;3.10;2.60;;;;;;;0.97;100.00;100537.56;5380996;26;20338;-72
2024/04/18 03:50:44;;;;;;;3.80;2.90;;;;;;;0.88;100.00;100539.13;5321243;26;20303;-72
2024/04/18 03:53:21;;;;;;;4.10;2.70;;;;;;;0.92;100.00;100547.97;5348095;26;20280;-72
2024/04/18 03:56:07;;;;;;;3.13;2.67;;;;;;;0.91;100.00;100546.41;5364462;26;20282;-72
2024/04/18 03:58:35;;;;;;;3.77;2.83;;;;;;;0.87;100.00;100544.56;5345531;26;20239;-72
2024/04/18 04:01:00;;;;;;;5.80;3.03;;;;;;;0.83;100.00;100551.38;5280062;27;20727;-72
2024/04/18 04:03:31;;;;;;;3.37;2.80;;;;;;;0.82;100.00;100560.19;5339640;26;20270;-72
2024/04/18 04:05:56;;;;;;;3.67;2.97;;;;;;;0.82;100.00;100558.38;5369655;26;20837;-72
2024/04/18 04:08:24;;;;;;;5.07;3.10;;;;;;;0.78;100.00;100565.13;5349651;26;20253;-72
2024/04/18 04:11:08;;;;;;;3.17;2.87;;;;;;;0.79;100.00;100565.91;5343190;26;20302;-72
2024/04/18 04:13:36;;;;;;;3.50;3.00;;;;;;;0.79;100.00;100568.50;5366666;26;20238;-72
2024/04/18 04:16:15;;;;;;;3.87;3.10;;;;;;;0.80;100.00;100573.44;5362912;26;20310;-72
2024/04/18 04:18:50;;;;;;;3.50;2.90;;;;;;;0.81;100.00;100572.41;5360631;26;20330;-71
2024/04/18 04:21:16;;;;;;;4.57;2.90;;;;;;;0.82;100.00;100576.56;5344817;26;20365;-72
2024/04/18 04:23:44;;;;;;;5.70;2.80;;;;;;;0.85;100.00;100586.44;5344673;26;20242;-72
2024/04/18 04:26:09;;;;;;;4.90;3.27;;;;;;;0.85;100.00;100586.44;5352293;26;20253;-72
2024/04/18 04:28:37;;;;;;;3.97;3.10;;;;;;;0.81;100.00;100597.59;5366847;26;20238;-73
2024/04/18 04:31:03;;;;;;;4.43;3.23;;;;;;;0.82;100.00;100605.16;5374439;26;20664;-72
2024/04/18 04:33:35;;;;;;;3.83;3.07;;;;;;;0.83;100.00;100603.34;5296116;26;20324;-72
2024/04/18 04:36:04;;;;;;;4.00;2.93;;;;;;;0.82;100.00;100606.97;5343100;26;20834;-72
2024/04/18 04:38:31;;;;;;;5.03;3.23;;;;;;;0.93;100.00;100616.31;5347630;26;20223;-72
2024/04/18 04:40:57;;;;;;;4.93;3.57;;;;;;;0.97;100.00;100620.75;5376643;26;20281;-72
2024/04/18 04:43:25;;;;;;;4.83;3.30;;;;;;;1.00;100.00;100614.25;5344593;26;20347;-72
2024/04/18 04:45:53;;;;;;;4.63;3.70;;;;;;;1.08;100.00;100621.50;5346454;26;20347;-72
2024/04/18 04:48:36;;;;;;;5.17;3.20;;;;;;;1.13;100.00;100624.09;5348463;26;20238;-72
2024/04/18 04:51:14;;;;;;;5.07;3.63;;;;;;;1.11;100.00;100628.78;5343007;26;20242;-72
2024/04/18 04:53:42;;;;;;;6.40;4.17;;;;;;;1.21;100.00;100633.97;5340305;26;20329;-72
2024/04/18 04:56:28;;;;;;;5.37;4.27;;;;;;;1.29;100.00;100636.03;5358385;26;20238;-73
2024/04/18 04:59:16;;;;;;;5.73;4.23;;;;;;;1.36;100.00;100642.53;5370046;26;20269;-72
2024/04/18 05:01:48;;;;;;;6.53;4.73;;;;;;;1.43;100.00;100644.84;5357697;26;20272;-72
2024/04/18 05:04:16;;;;;;;6.70;4.87;;;;;;;1.46;100.00;100649.56;5361704;26;20492;-72
2024/04/18 05:06:44;;;;;;;6.63;4.73;;;;;;;1.53;100.00;100650.84;5365828;26;20231;-72
2024/04/18 05:09:17;;;;;;;8.23;4.37;;;;;;;1.63;100.00;100653.41;5370914;26;20219;-72
2024/04/18 05:11:43;;;;;;;5.90;4.53;;;;;;;1.66;100.00;100654.72;5359426;26;20285;-72
2024/04/18 05:14:29;;;;;;;8.47;4.47;;;;;;;1.71;100.00;100667.72;5359627;26;20257;-73
2024/04/18 05:16:55;;;;;;;7.57;5.20;;;;;;;1.75;100.00;100660.91;5362578;26;20655;-72
2024/04/18 05:19:23;;;;;;;8.67;5.10;;;;;;;1.80;100.00;100661.69;5364683;26;20349;-72
2024/04/18 05:21:51;;;;;;;10.03;5.80;;;;;;;1.85;100.00;100672.09;5359332;26;20691;-72
2024/04/18 05:24:35;;;;;;;7.50;5.60;;;;;;;1.92;100.00;100674.41;5313896;26;20245;-72
2024/04/18 05:27:01;;;;;;;7.67;5.67;;;;;;;1.95;100.00;100677.25;5345427;26;20231;-72
2024/04/18 05:32:13;;;;;;;9.27;5.80;;;;;;;1.95;100.00;100687.66;5376861;26;20226;-72
2024/04/18 05:35:01;;;;;;;13.00;6.30;;;;;;;2.03;100.00;100691.56;5369343;26;20227;-72
2024/04/18 05:37:31;;;;;;;11.20;7.27;;;;;;;2.06;100.00;100683.19;5371531;26;20294;-72
2024/04/18 05:39:59;;;;;;;10.97;7.13;;;;;;;2.14;100.00;100699.03;5344848;26;20231;-72
2024/04/18 05:42:27;;;;;;;11.10;7.10;;;;;;;2.21;100.00;100698.75;5343100;26;20314;-72
2024/04/18 05:45:11;;;;;;;10.17;7.23;;;;;;;2.32;100.00;100697.66;5363092;26;20218;-72
2024/04/18 05:47:59;;;;;;;16.20;8.17;;;;;;;2.42;100.00;100708.03;5318994;26;20302;-72
2024/04/18 05:50:28;;;;;;;13.37;8.30;;;;;;;2.47;100.00;100711.41;5349092;26;20287;-73
2024/04/18 05:52:59;;;;;;;12.67;8.50;;;;;;;2.52;100.00;100711.38;5354515;26;20301;-72
2024/04/18 05:55:47;;;;;;;13.40;8.13;;;;;;;2.50;100.00;100712.69;5344929;26;20285;-73
2024/04/18 05:58:15;;;;;;;15.63;9.50;;;;;;;2.49;100.00;100713.75;5319280;26;20268;-73
2024/04/18 06:00:55;;;;;;;13.87;8.63;;;;;;;2.52;100.00;100719.22;5347190;26;20222;-72
2024/04/18 06:03:24;;;;;;;13.53;8.77;;;;;;;2.58;100.00;100720.72;5350029;26;20266;-72
2024/04/18 06:05:52;;;;;;;14.50;8.37;;;;;;;2.62;100.00;100726.19;5338464;26;20230;-72
2024/04/18 06:08:23;;;;;;;12.30;7.23;;;;;;;2.66;100.00;100722.00;5364043;26;20289;-73
2024/04/18 06:10:51;;;;;;;11.93;7.93;;;;;;;2.68;100.00;100723.28;5345541;26;20371;-72
2024/04/18 06:13:19;;;;;;;11.83;7.93;;;;;;;2.75;100.00;100728.22;5341515;26;20567;-73
2024/04/18 06:15:49;;;;;;;14.80;8.10;;;;;;;2.85;100.00;100741.19;5343241;26;20239;-73
2024/04/18 06:18:17;;;;;;;12.43;7.37;;;;;;;2.96;100.00;100747.91;5335098;26;20359;-73
2024/04/18 06:20:47;;;;;;;14.53;7.87;;;;;;;3.07;100.00;100749.38;5326711;26;20302;-72
2024/04/18 06:23:16;;;;;;;10.33;6.83;;;;;;;3.24;100.00;100755.00;5351912;26;20357;-72
2024/04/18 06:25:46;;;;;;;30.20;15.60;;;;;;;3.29;100.00;100758.34;5333056;26;20251;-73
2024/04/18 06:28:15;;;;;;;15.20;8.07;;;;;;;3.40;100.00;100759.03;5342233;26;20705;-73
2024/04/18 06:30:43;;;;;;;11.70;7.20;;;;;;;3.43;100.00;100756.66;5352936;26;20237;-73
2024/04/18 06:33:14;;;;;;;13.37;7.67;;;;;;;3.47;100.00;100762.88;5342094;26;20239;-72
2024/04/18 06:35:43;;;;;;;13.83;7.53;;;;;;;3.50;100.00;100759.75;5364637;26;20233;-73
2024/04/18 06:38:11;;;;;;;10.93;7.27;;;;;;;3.55;100.00;100761.53;5343299;26;20686;-73
2024/04/18 06:40:40;;;;;;;13.30;7.43;;;;;;;3.57;100.00;100764.66;5347772;26;20306;-73
2024/04/18 06:43:10;;;;;;;13.17;6.77;;;;;;;3.61;100.00;100768.25;5360162;26;21032;-73
2024/04/18 06:45:38;;;;;;;11.50;6.97;;;;;;;3.66;100.00;100770.81;5351713;26;20251;-73
2024/04/18 06:48:08;;;;;;;11.67;5.83;;;;;;;3.72;100.00;100775.72;5356830;26;20265;-73
2024/04/18 06:50:36;;;;;;;9.47;5.93;;;;;;;3.78;100.00;100786.94;5352041;26;20254;-73
2024/04/18 06:53:05;;;;;;;7.83;5.77;;;;;;;3.82;100.00;100774.84;5364890;26;20587;-73
2024/04/18 06:55:34;;;;;;;9.13;5.80;;;;;;;3.89;100.00;100783.91;5366913;26;20226;-73
2024/04/18 06:58:02;;;;;;;10.97;6.47;;;;;;;3.96;100.00;100787.00;5352421;26;20683;-73
2024/04/18 07:00:33;;;;;;;10.90;6.50;;;;;;;4.03;100.00;100787.44;5341117;26;20350;-73
2024/04/18 07:03:01;;;;;;;9.80;5.53;;;;;;;4.11;100.00;100794.69;5337873;26;20250;-73
2024/04/18 07:05:48;;;;;;;8.70;5.67;;;;;;;4.19;100.00;100798.53;5345810;26;20289;-73
2024/04/18 07:08:22;;;;;;;8.27;5.77;;;;;;;4.28;100.00;100797.63;5360637;26;20234;-73
2024/04/18 07:10:50;;;;;;;8.27;5.00;;;;;;;4.35;100.00;100790.22;5351322;26;20262;-73
2024/04/18 07:13:30;;;;;;;7.37;5.00;;;;;;;4.47;100.00;100798.47;5348700;26;20270;-73
2024/04/18 07:16:02;;;;;;;8.10;4.73;;;;;;;4.55;100.00;100799.66;5343007;26;20293;-73
2024/04/18 07:18:49;;;;;;;5.97;4.43;;;;;;;4.65;100.00;100804.78;5354185;26;20340;-73
2024/04/18 07:21:17;;;;;;;6.13;3.73;;;;;;;4.74;100.00;100800.47;5357266;26;20360;-73
2024/04/18 07:23:45;;;;;;;6.00;3.80;;;;;;;4.80;100.00;100802.75;5344079;26;20252;-73
2024/04/18 07:26:13;;;;;;;4.87;3.50;;;;;;;4.90;100.00;100796.59;5345608;26;20251;-73
2024/04/18 07:28:41;;;;;;;4.90;3.10;;;;;;;5.00;100.00;100802.50;5347878;26;20349;-73
2024/04/18 07:31:12;;;;;;;5.03;3.50;;;;;;;5.14;100.00;100802.56;5307578;26;20635;-73
2024/04/18 07:33:40;;;;;;;4.03;3.13;;;;;;;5.24;100.00;100811.03;5363252;26;20258;-73
2024/04/18 07:36:21;;;;;;;4.03;3.13;;;;;;;5.39;100.00;100810.81;5333705;26;20238;-73
2024/04/18 07:38:49;;;;;;;4.43;3.23;;;;;;;5.50;100.00;100809.59;5346886;26;20238;-73
2024/04/18 07:41:17;;;;;;;5.47;2.43;;;;;;;5.69;100.00;100812.19;5357653;26;20305;-73
2024/04/18 07:43:45;;;;;;;3.27;2.47;;;;;;;5.83;100.00;100818.25;5350789;26;20280;-73
2024/04/18 07:46:16;;;;;;;5.33;3.13;;;;;;;6.02;100.00;100824.22;5334573;26;20234;-73
2024/04/18 07:48:44;;;;;;;3.43;2.40;;;;;;;6.10;100.00;100823.53;5345651;26;20242;-73
2024/04/18 07:51:12;;;;;;;3.93;1.80;;;;;;;6.19;100.00;100819.19;5345530;26;20297;-73
2024/04/18 07:53:41;;;;;;;2.73;2.00;;;;;;;6.31;100.00;100825.53;5345674;26;20752;-73
2024/04/18 07:56:09;;;;;;;2.47;2.00;;;;;;;6.39;100.00;100831.94;5333811;26;20282;-73
2024/04/18 07:58:37;;;;;;;5.50;2.23;;;;;;;6.43;100.00;100832.91;5350728;26;20230;-73
2024/04/18 08:01:05;;;;;;;1.60;1.50;;;;;;;6.47;100.00;100831.28;5358357;26;20756;-73
2024/04/18 08:03:36;;;;;;;2.57;1.77;;;;;;;6.47;100.00;100834.66;5344163;26;20690;-73
2024/04/18 08:06:04;;;;;;;2.27;1.63;;;;;;;6.48;100.00;100833.56;5346368;26;20714;-73
2024/04/18 08:08:32;;;;;;;1.67;1.57;;;;;;;6.55;100.00;100841.06;5354723;26;20375;-73
2024/04/18 08:11:08;;;;;;;2.03;1.57;;;;;;;6.63;100.00;100832.53;5352543;26;20275;-73
2024/04/18 08:13:38;;;;;;;1.70;1.50;;;;;;;6.76;100.00;100847.47;5348054;26;20239;-73
2024/04/18 08:16:07;;;;;;;2.10;1.90;;;;;;;6.93;100.00;100843.16;5359239;26;20243;-73
2024/04/18 08:18:38;;;;;;;2.37;1.77;;;;;;;7.03;100.00;100840.34;5338028;26;20372;-73
2024/04/18 08:21:06;;;;;;;1.47;1.30;;;;;;;7.11;100.00;100849.38;5354518;26;20242;-73
2024/04/18 08:23:34;;;;;;;1.70;1.50;;;;;;;7.17;100.00;100846.34;5352714;26;20242;-73
2024/04/18 08:26:03;;;;;;;2.13;1.90;;;;;;;7.21;100.00;100849.16;5341554;26;20291;-73
2024/04/18 08:28:31;;;;;;;1.67;1.50;;;;;;;7.23;100.00;100849.63;5358338;26;20231;-73
2024/04/18 08:30:59;;;;;;;2.47;1.70;;;;;;;7.34;100.00;100856.97;5362316;26;20302;-73
2024/04/18 08:33:27;;;;;;;1.63;1.50;;;;;;;7.45;100.00;100844.41;5358868;26;20234;-73
2024/04/18 08:35:57;;;;;;;2.83;1.50;;;;;;;7.58;100.00;100857.50;5356977;26;20282;-73
2024/04/18 08:38:25;;;;;;;1.77;1.50;;;;;;;7.71;100.00;100842.75;5351548;26;20303;-73
2024/04/18 08:40:53;;;;;;;2.13;1.70;;;;;;;7.85;100.00;100851.31;5347409;26;20298;-74
2024/04/18 08:43:21;;;;;;;1.53;1.30;;;;;;;8.04;100.00;100852.69;5354026;26;20271;-73
2024/04/18 08:45:50;;;;;;;1.40;1.30;;;;;;;8.16;100.00;100847.63;5351325;26;20338;-73
2024/04/18 08:48:19;;;;;;;2.67;1.73;;;;;;;8.28;100.00;100837.34;5354713;26;20369;-74
2024/04/18 08:50:48;;;;;;;3.37;1.80;;;;;;;8.40;100.00;100840.19;5343760;26;20380;-73
2024/04/18 08:53:18;;;;;;;2.30;1.73;;;;;;;8.47;100.00;100837.09;5359903;26;20506;-73
2024/04/18 08:55:50;;;;;;;2.47;1.10;;;;;;;8.50;100.00;100853.06;5342895;26;20369;-73
2024/04/18 08:58:19;;;;;;;1.17;1.07;;;;;;;8.51;100.00;100848.56;5338500;26;20235;-74
2024/04/18 09:00:48;;;;;;;1.30;1.10;;;;;;;8.61;100.00;100843.81;5345352;26;20329;-73
2024/04/18 09:03:16;;;;;;;1.30;1.20;;;;;;;8.82;100.00;100841.38;5342607;26;21129;-73
2024/04/18 09:05:44;;;;;;;1.50;1.10;;;;;;;8.91;100.00;100836.91;5340381;26;20230;-73
2024/04/18 09:08:12;;;;;;;1.30;1.20;;;;;;;8.98;100.00;100842.50;5303169;26;20586;-73
2024/04/18 09:10:41;;;;;;;1.57;1.40;;;;;;;8.94;100.00;100841.56;5344325;26;20353;-72
2024/04/18 09:13:09;;;;;;;1.53;1.30;;;;;;;8.92;100.00;100846.34;5351352;26;20280;-73
2024/04/18 09:15:37;;;;;;;2.30;1.17;;;;;;;8.97;100.00;100846.22;5349992;26;20294;-73
2024/04/18 09:18:07;;;;;;;1.67;1.20;;;;;;;8.97;100.00;100841.75;5352163;26;20241;-73
2024/04/18 09:20:36;;;;;;;3.23;1.30;;;;;;;9.01;100.00;100840.00;5349888;26;20773;-73
2024/04/18 09:23:05;;;;;;;1.60;1.30;;;;;;;9.09;100.00;100847.16;5343972;26;20378;-73
2024/04/18 09:25:33;;;;;;;1.97;1.20;;;;;;;9.15;100.00;100843.28;5348611;26;20312;-73
2024/04/18 09:28:04;;;;;;;1.57;1.40;;;;;;;9.27;100.00;100846.06;5348250;26;20234;-73
2024/04/18 09:30:32;;;;;;;1.73;1.43;;;;;;;9.34;100.00;100846.41;5345825;26;20359;-73
2024/04/18 09:33:02;;;;;;;1.47;1.37;;;;;;;9.44;100.00;100846.09;5352148;26;20250;-73
2024/04/18 09:35:33;;;;;;;1.30;1.20;;;;;;;9.52;100.00;100849.81;5347516;26;20298;-74
2024/04/18 09:38:01;;;;;;;2.17;1.40;;;;;;;9.46;100.00;100851.81;5340289;26;20359;-73
2024/04/18 09:40:34;;;;;;;1.63;1.20;;;;;;;9.29;100.00;100848.41;5330923;26;20588;-73
2024/04/18 09:43:15;;;;;;;2.27;1.40;;;;;;;9.24;100.00;100856.47;5338417;26;20269;-72
2024/04/18 09:45:51;;;;;;;1.30;1.20;;;;;;;9.04;100.00;100864.97;5357937;26;20241;-73
2024/04/18 09:48:19;;;;;;;2.67;1.20;;;;;;;8.93;100.00;100871.59;5345310;26;20248;-73
2024/04/18 09:50:48;;;;;;;1.30;1.20;;;;;;;8.69;100.00;100874.66;5356928;26;20339;-73
2024/04/18 09:53:17;;;;;;;1.53;1.20;;;;;;;8.56;100.00;100872.91;5345871;26;20351;-73
2024/04/18 09:55:46;;;;;;;1.50;1.40;;;;;;;8.44;100.00;100871.94;5345561;26;20234;-73
2024/04/18 09:58:20;;;;;;;3.10;1.40;;;;;;;8.36;100.00;100876.09;5342494;26;20891;-73
2024/04/18 10:00:48;;;;;;;1.80;1.50;;;;;;;8.28;100.00;100874.16;5348973;26;20256;-73
2024/04/18 10:03:18;;;;;;;5.73;2.10;;;;;;;8.24;100.00;100878.47;5349955;26;20304;-73
2024/04/18 10:05:49;;;;;;;8.37;4.40;;;;;;;8.16;100.00;100879.19;5354062;26;20241;-73
2024/04/18 10:08:20;;;;;;;4.83;3.00;;;;;;;8.13;100.00;100871.91;5349220;26;20246;-73
2024/04/18 10:10:49;;;;;;;5.90;3.83;;;;;;;8.13;100.00;100873.75;5353737;26;20303;-73
2024/04/18 10:13:23;;;;;;;3.50;2.83;;;;;;;8.19;100.00;100875.19;5338441;26;20517;-73
2024/04/18 10:15:52;;;;;;;5.87;3.70;;;;;;;8.21;100.00;100886.19;5342895;26;20345;-73
2024/04/18 10:18:20;;;;;;;3.03;2.73;;;;;;;8.24;100.00;100873.22;5356065;26;20299;-73
2024/04/18 10:20:49;;;;;;;4.67;3.20;;;;;;;8.32;100.00;100885.66;5348160;26;20320;-75
2024/04/18 10:23:17;;;;;;;4.60;3.03;;;;;;;8.39;100.00;100880.72;5333573;26;20247;-73
2024/04/18 10:25:47;;;;;;;3.20;2.90;;;;;;;8.48;100.00;100867.59;5335107;26;21008;-73
2024/04/18 10:28:22;;;;;;;2.90;2.63;;;;;;;8.58;100.00;100872.59;5348188;26;20238;-73
2024/04/18 10:30:50;;;;;;;2.93;2.63;;;;;;;8.66;100.00;100874.47;5351193;26;20237;-73
2024/04/18 10:33:18;;;;;;;2.57;2.37;;;;;;;8.72;100.00;100878.53;5346088;26;20242;-73
2024/04/18 10:35:47;;;;;;;2.37;2.17;;;;;;;8.81;100.00;100882.72;5341691;26;20230;-73
2024/04/18 10:38:26;;;;;;;2.40;2.20;;;;;;;8.89;100.00;100876.72;5329342;26;20234;-73
2024/04/18 10:41:03;;;;;;;3.93;2.60;;;;;;;8.97;100.00;100873.34;5343288;26;20398;-73
2024/04/18 10:43:35;;;;;;;2.70;2.50;;;;;;;9.12;100.00;100869.47;5340349;26;20319;-73
2024/04/18 10:46:00;;;;;;;2.40;2.20;;;;;;;9.26;100.00;100878.78;5342198;26;20377;-73
2024/04/18 10:48:29;;;;;;;2.47;2.07;;;;;;;9.40;96.25;100874.16;5340820;26;20234;-73
2024/04/18 10:50:57;;;;;;;2.40;2.07;;;;;;;9.52;99.31;100873.53;5316118;26;20801;-73
2024/04/18 10:53:25;;;;;;;2.17;1.97;;;;;;;9.57;88.83;100874.16;5334454;26;20243;-73
2024/04/18 10:55:54;;;;;;;2.03;1.83;;;;;;;9.67;100.00;100880.94;5343675;26;20708;-73
2024/04/18 10:58:22;;;;;;;2.17;1.97;;;;;;;9.78;100.00;100869.78;5342438;26;20272;-73
2024/04/18 11:00:58;;;;;;;2.27;1.90;;;;;;;9.93;100.00;100874.56;5352759;26;20227;-73
2024/04/18 11:03:27;;;;;;;1.97;1.83;;;;;;;9.94;100.00;100873.47;5346314;26;20263;-74
2024/04/18 11:05:54;;;;;;;2.20;2.00;;;;;;;9.90;80.02;100866.50;5348172;26;20239;-74
2024/04/18 11:08:22;;;;;;;2.23;2.03;;;;;;;9.86;82.73;100868.22;5352324;26;20276;-74
2024/04/18 11:10:51;;;;;;;2.30;2.10;;;;;;;9.84;87.85;100880.97;5343217;26;20338;-73
2024/04/18 11:13:20;;;;;;;3.10;2.23;;;;;;;9.71;88.01;100879.25;5355497;26;20289;-74
2024/04/18 11:15:49;;;;;;;2.30;2.10;;;;;;;9.66;94.56;100889.94;5352334;26;20258;-73
2024/04/18 11:18:21;;;;;;;2.23;2.03;;;;;;;9.55;100.00;100884.25;5321539;26;20308;-73
2024/04/18 11:20:49;;;;;;;2.07;1.97;;;;;;;9.51;100.00;100890.41;5350107;26;20238;-73
2024/04/18 11:23:17;;;;;;;3.40;2.40;;;;;;;9.49;100.00;100885.47;5350759;26;20937;-72
2024/04/18 11:25:45;;;;;;;3.57;2.53;;;;;;;9.48;100.00;100881.28;5347924;26;20311;-73
2024/04/18 11:28:14;;;;;;;3.07;2.40;;;;;;;9.57;100.00;100876.03;5342686;26;20383;-73
2024/04/18 11:30:44;;;;;;;2.20;2.00;;;;;;;9.72;100.00;100878.16;5347375;26;20356;-73
2024/04/18 11:33:12;;;;;;;2.67;2.47;;;;;;;9.83;97.50;100871.50;5352658;26;20261;-73
2024/04/18 11:35:43;;;;;;;2.83;2.10;;;;;;;9.89;97.59;100867.59;5351176;26;20272;-72
2024/04/18 11:38:11;;;;;;;1.90;1.73;;;;;;;9.91;87.54;100870.69;5344308;26;20408;-73
2024/04/18 11:40:41;;;;;;;1.60;1.50;;;;;;;10.04;92.42;100875.06;5357461;26;20303;-74
2024/04/18 11:43:09;;;;;;;2.80;2.33;;;;;;;10.17;100.00;100876.72;5319003;26;20353;-73
2024/04/18 11:45:37;;;;;;;3.47;2.00;;;;;;;10.21;82.59;100883.69;5346900;26;20290;-73
2024/04/18 11:48:06;;;;;;;3.33;2.27;;;;;;;10.37;84.89;100874.19;5342925;26;20242;-73